LPPS/PXO METAR and TAF weather

Enter ICAO airport designator
Station Type Date Time Source
LPPS METAR 2019/04/22 18:00 UTC NOAA

LPPS 221800Z 30015KT 9999 SCT015 BKN030 18/13 Q1012


Station Type Date Time Source
LPPS Decoded METAR 2019/04/22 18:00 UTC NOAA

Porto Santo, Portugal (LPPS) 33-04N 016-21W 82M
Apr 22, 2019 - 02:00 PM EDT / 2019.04.22 1800 UTC
Wind: from the WNW (300 degrees) at 17 MPH (15 KT):0
Visibility: greater than 7 mile(s):0
Sky conditions: mostly cloudy
Temperature: 64 F (18 C)
Dew Point: 55 F (13 C)
Relative Humidity: 72%
Pressure (altimeter): 29.88 in. Hg (1012 hPa)
ob: LPPS 221800Z 30015KT 9999 SCT015 BKN030 18/13 Q1012
cycle: 18

Station Type Date Time Source
LPPS TAF 2019/04/22 18:18 UTC NOAA

TAF LPPS 221700Z 2218/2324 32015KT 9999 SCT015 BKN030 PROB30
TEMPO 2218/2324 34020G30KT
BECMG 2220/2222 BKN015
TEMPO 2222/2303 5000 RADZ BR SCT006 BKN012

Example: see airport list